createdAt,value
2023-01-02T00:00:49.100Z,7.49
2023-01-02T00:05:52.299Z,7.55
2023-01-02T00:10:56.731Z,7.54
2023-01-02T00:15:59.889Z,7.65
2023-01-02T00:21:04.754Z,7.51
2023-01-02T00:26:08.122Z,7.55
2023-01-02T00:31:13.966Z,7.48
2023-01-02T00:36:17.076Z,7.53
2023-01-02T00:41:21.714Z,7.67
2023-01-02T00:46:25.001Z,7.51
2023-01-02T00:51:28.209Z,7.67
2023-01-02T00:56:31.312Z,7.67
2023-01-02T01:01:34.481Z,7.53
2023-01-02T01:06:37.789Z,7.78
2023-01-02T01:11:40.866Z,7.67
2023-01-02T01:16:43.972Z,7.72
2023-01-02T01:21:47.102Z,7.68
2023-01-02T01:26:50.085Z,7.83
2023-01-02T01:31:54.579Z,7.61
2023-01-02T01:36:57.711Z,7.74
2023-01-02T01:47:42.785Z,8.00
2023-01-02T01:52:50.634Z,7.98
2023-01-02T01:57:59.091Z,7.93
2023-01-02T02:03:09.101Z,7.98
2023-01-02T02:08:49.337Z,8.12
2023-01-02T02:13:52.587Z,8.05
2023-01-02T02:19:01.147Z,8.13
2023-01-02T02:24:25.493Z,8.18
2023-01-02T02:29:46.975Z,8.19
2023-01-02T02:35:08.095Z,8.15
2023-01-02T02:40:29.544Z,8.03
2023-01-02T02:45:46.044Z,8.21
2023-01-02T02:51:15.540Z,8.20
2023-01-02T02:56:21.349Z,8.18
2023-01-02T03:01:30.908Z,8.13
2023-01-02T03:07:04.154Z,8.25
2023-01-02T03:12:16.460Z,8.16
2023-01-02T03:18:02.923Z,8.21
2023-01-02T03:23:11.980Z,8.19
2023-01-02T03:28:23.264Z,8.18
2023-01-02T03:33:30.748Z,8.07
2023-01-02T03:38:39.765Z,8.14
2023-01-02T03:43:48.979Z,8.05
2023-01-02T03:49:26.817Z,8.03
2023-01-02T03:54:30.584Z,8.02
2023-01-02T03:59:53.406Z,8.06
2023-01-02T04:04:59.953Z,8.03
2023-01-02T04:10:04.968Z,7.94
2023-01-02T04:15:10.004Z,7.93
2023-01-02T04:20:27.209Z,7.84
2023-01-02T04:25:38.298Z,7.70
2023-01-02T04:30:47.018Z,7.73
2023-01-02T04:35:50.287Z,7.76
2023-01-02T04:40:53.423Z,7.71
2023-01-02T04:45:56.680Z,7.66
2023-01-02T04:50:59.856Z,7.74
2023-01-02T04:56:03.008Z,7.69
2023-01-02T05:01:12.312Z,7.81
2023-01-02T05:06:16.503Z,7.80
2023-01-02T05:11:20.688Z,7.83
2023-01-02T05:16:23.774Z,7.82
2023-01-02T05:21:45.396Z,7.76
2023-01-02T05:26:49.707Z,7.80
2023-01-02T05:31:52.863Z,7.87
2023-01-02T05:36:55.980Z,7.84
2023-01-02T05:41:59.075Z,7.78
2023-01-02T05:47:02.260Z,7.91
2023-01-02T05:52:05.420Z,7.84
2023-01-02T05:57:08.487Z,7.92
2023-01-02T06:02:11.707Z,7.85
2023-01-02T06:07:14.936Z,7.86
2023-01-02T06:12:18.644Z,7.89
2023-01-02T06:17:21.797Z,7.76
2023-01-02T06:22:24.864Z,8.00
2023-01-02T06:27:27.944Z,7.86
2023-01-02T06:32:31.072Z,7.94
2023-01-02T06:37:34.624Z,7.99
2023-01-02T06:42:38.448Z,7.98
2023-01-02T06:47:41.481Z,8.10
2023-01-02T06:52:44.584Z,8.17
2023-01-02T06:57:47.629Z,8.21
2023-01-02T07:02:50.785Z,8.37
2023-01-02T07:07:53.850Z,8.50
2023-01-02T07:13:26.305Z,8.69
2023-01-02T07:18:29.417Z,8.69
2023-01-02T07:23:32.883Z,8.72
2023-01-02T07:28:36.982Z,8.77
2023-01-02T07:33:40.280Z,8.98
2023-01-02T07:38:44.375Z,9.11
2023-01-02T07:43:48.365Z,9.43
2023-01-02T07:48:51.621Z,9.55
2023-01-02T07:53:54.903Z,9.53
2023-01-02T07:58:58.038Z,9.57
2023-01-02T08:04:01.087Z,9.48
2023-01-02T08:09:04.188Z,9.61
2023-01-02T08:14:07.333Z,9.56
2023-01-02T08:19:10.530Z,9.72
2023-01-02T08:24:13.585Z,9.75
2023-01-02T08:29:16.713Z,9.99
2023-01-02T08:34:19.820Z,10.05
2023-01-02T08:39:22.909Z,9.84
2023-01-02T08:44:26.047Z,9.96
2023-01-02T08:49:29.196Z,9.93
2023-01-02T08:54:32.413Z,9.82
2023-01-02T08:59:35.563Z,9.59
2023-01-02T09:04:38.803Z,9.82
2023-01-02T09:09:41.825Z,9.94
2023-01-02T09:14:44.852Z,10.05
2023-01-02T09:19:48.951Z,9.93
2023-01-02T09:24:52.120Z,10.06
2023-01-02T09:29:55.164Z,10.04
2023-01-02T09:34:58.257Z,10.01
2023-01-02T09:40:01.310Z,10.08
2023-01-02T09:45:08.989Z,10.00
2023-01-02T09:50:18.953Z,9.85
2023-01-02T09:56:22.745Z,9.98
2023-01-02T10:01:37.963Z,10.00
2023-01-02T10:07:12.674Z,9.90
2023-01-02T10:17:58.964Z,9.69
2023-01-02T10:23:07.233Z,9.67
2023-01-02T10:28:38.683Z,9.67
2023-01-02T10:33:53.632Z,9.71
2023-01-02T10:39:02.599Z,9.70
2023-01-02T10:44:35.169Z,9.92
2023-01-02T10:49:40.405Z,10.01
2023-01-02T10:54:59.657Z,9.97
2023-01-02T11:00:05.987Z,9.82
2023-01-02T11:05:21.837Z,9.81
2023-01-02T11:10:30.817Z,9.70
2023-01-02T11:21:04.699Z,9.71
2023-01-02T11:26:23.001Z,9.55
2023-01-02T11:31:26.135Z,9.55
2023-01-02T11:36:29.915Z,9.43
2023-01-02T11:42:07.211Z,9.42
2023-01-02T11:47:13.872Z,9.21
2023-01-02T11:52:23.041Z,9.11
2023-01-02T11:57:58.340Z,9.12
2023-01-02T12:03:07.409Z,9.09
2023-01-02T12:08:44.579Z,9.11
2023-01-02T12:14:15.362Z,9.24
2023-01-02T12:19:42.522Z,9.30
2023-01-02T12:24:54.728Z,9.23
2023-01-02T12:30:13.077Z,9.23
2023-01-02T12:35:41.583Z,9.19
2023-01-02T12:42:00.529Z,8.96
2023-01-02T12:47:18.855Z,8.78
2023-01-02T12:53:09.733Z,8.83
2023-01-02T12:58:39.906Z,8.84
2023-01-02T13:04:21.547Z,9.00
2023-01-02T13:09:30.197Z,9.00
2023-01-02T13:15:09.539Z,9.03
2023-01-02T13:20:16.052Z,9.04
2023-01-02T13:25:20.940Z,8.96
2023-01-02T13:30:35.862Z,9.03
2023-01-02T13:35:39.467Z,9.00
2023-01-02T13:40:43.279Z,8.94
2023-01-02T13:45:50.792Z,8.98
2023-01-02T13:51:05.683Z,8.94
2023-01-02T13:56:14.771Z,9.01
2023-01-02T14:01:24.095Z,8.95
2023-01-02T14:06:33.107Z,8.88
2023-01-02T14:11:56.591Z,8.94
2023-01-02T14:17:41.768Z,8.90
2023-01-02T14:23:25.227Z,8.92
2023-01-02T14:28:39.310Z,8.81
2023-01-02T14:33:42.672Z,8.60
2023-01-02T14:38:55.899Z,8.73
2023-01-02T14:43:59.930Z,8.71
2023-01-02T14:49:26.034Z,8.77
2023-01-02T14:54:39.355Z,8.58
2023-01-02T14:59:47.780Z,8.54
2023-01-02T15:05:06.519Z,8.56
2023-01-02T15:10:18.963Z,8.57
2023-01-02T15:15:26.733Z,8.49
2023-01-02T15:20:31.934Z,8.42
2023-01-02T15:25:42.969Z,8.34
2023-01-02T15:30:47.431Z,8.23
2023-01-02T15:35:56.488Z,8.08
2023-01-02T15:40:59.691Z,7.92
2023-01-02T15:46:03.040Z,7.88
2023-01-02T15:51:07.089Z,7.66
2023-01-02T15:56:31.844Z,7.71
2023-01-02T16:01:45.241Z,7.48
2023-01-02T16:06:48.357Z,7.49
2023-01-02T16:11:57.578Z,7.50
2023-01-02T16:17:04.984Z,7.77
2023-01-02T16:22:10.703Z,7.87
2023-01-02T16:27:15.605Z,7.87
2023-01-02T16:32:36.491Z,7.94
2023-01-02T16:37:39.637Z,7.94
2023-01-02T16:42:43.463Z,7.91
2023-01-02T16:47:46.639Z,7.81
2023-01-02T16:52:50.023Z,7.95
2023-01-02T16:57:53.034Z,7.96
2023-01-02T17:02:56.136Z,7.99
2023-01-02T17:07:59.354Z,7.87
2023-01-02T17:13:04.212Z,7.98
2023-01-02T17:18:10.791Z,7.90
2023-01-02T17:23:14.055Z,7.93
2023-01-02T17:28:17.612Z,7.89
2023-01-02T17:33:20.674Z,7.66
2023-01-02T17:38:23.684Z,7.76
2023-01-02T17:43:29.403Z,7.69
2023-01-02T17:48:32.617Z,7.73
2023-01-02T17:53:36.632Z,7.76
2023-01-02T17:58:40.008Z,7.69
2023-01-02T18:03:43.059Z,7.73
2023-01-02T18:08:46.759Z,7.48
2023-01-02T18:13:55.112Z,7.29
2023-01-02T18:18:59.114Z,6.93
2023-01-02T18:24:07.454Z,6.86
2023-01-02T18:29:24.247Z,6.71
2023-01-02T18:34:48.233Z,6.57
2023-01-02T18:39:53.151Z,6.44
2023-01-02T18:44:59.369Z,6.36
2023-01-02T18:50:19.828Z,6.30
2023-01-02T18:55:35.439Z,6.22
2023-01-02T19:00:43.067Z,6.04
2023-01-02T19:05:46.468Z,5.91
2023-01-02T19:10:55.528Z,5.92
2023-01-02T19:16:13.475Z,5.73
2023-01-02T19:21:26.304Z,5.77
2023-01-02T19:26:36.869Z,5.70
2023-01-02T19:31:53.296Z,5.64
2023-01-02T19:37:23.005Z,5.49
2023-01-02T19:42:28.543Z,5.43
2023-01-02T19:47:34.699Z,5.37
2023-01-02T19:52:38.153Z,5.31
2023-01-02T19:57:41.538Z,5.17
2023-01-02T20:02:52.506Z,5.08
2023-01-02T20:07:58.398Z,5.13
2023-01-02T20:13:01.522Z,4.97
2023-01-02T20:18:08.912Z,4.98
2023-01-02T20:23:12.249Z,4.83
2023-01-02T20:28:15.303Z,4.85
2023-01-02T20:33:18.371Z,4.90
2023-01-02T20:38:21.414Z,4.76
2023-01-02T20:43:24.509Z,4.57
2023-01-02T20:48:28.334Z,4.51
2023-01-02T20:53:31.385Z,4.34
2023-01-02T20:58:34.979Z,4.22
2023-01-02T21:03:38.170Z,4.20
2023-01-02T21:08:41.297Z,4.06
2023-01-02T21:13:44.422Z,3.98
2023-01-02T21:18:47.886Z,3.95
2023-01-02T21:23:50.963Z,4.00
2023-01-02T21:28:54.028Z,4.00
2023-01-02T21:33:57.133Z,3.87
2023-01-02T21:39:00.157Z,3.87
2023-01-02T21:44:03.228Z,3.83
2023-01-02T21:49:06.354Z,3.87
2023-01-02T21:54:09.449Z,3.79
2023-01-02T21:59:12.603Z,3.56
2023-01-02T22:04:15.648Z,3.47
2023-01-02T22:09:18.669Z,3.44
2023-01-02T22:14:29.977Z,3.39
2023-01-02T22:19:49.946Z,3.26
2023-01-02T22:24:53.470Z,3.26
2023-01-02T22:35:22.775Z,3.02
2023-01-02T22:40:25.836Z,2.96
2023-01-02T22:45:32.201Z,2.96
2023-01-02T22:50:44.060Z,3.03
2023-01-02T22:55:47.899Z,2.91
2023-01-02T23:01:02.618Z,2.81
2023-01-02T23:11:23.484Z,2.78
2023-01-02T23:16:48.846Z,2.82
2023-01-02T23:21:58.560Z,2.80
2023-01-02T23:27:05.621Z,2.71
2023-01-02T23:32:14.340Z,2.73
2023-01-02T23:37:17.403Z,2.64
2023-01-02T23:42:20.468Z,2.68
2023-01-02T23:47:23.520Z,2.64
2023-01-02T23:52:26.581Z,2.74
2023-01-02T23:57:29.731Z,2.73
